Time;durP1;ratioP1;P1;durP2;ratioP2;P2;SDS_P1;SDS_P2;PMS_P1;PMS_P2;Temp;Humidity;BMP_temperature;BMP_pressure;BME280_temperature;BME280_humidity;BME280_pressure;Samples;Min_cycle;Max_cycle;Signal;HPM_P1;HPM_P2
2023/03/14 00:02:25;;;;;;;;;;;;;;;14.93;100.00;96638.50;4988935;28;19921;-54
2023/03/14 00:04:50;;;;;;;;;;;;;;;15.01;100.00;96617.94;4989290;28;19972;-53
2023/03/14 00:07:15;;;;;;;;;;;;;;;15.31;100.00;96644.69;4987060;28;20039;-52
2023/03/14 00:09:40;;;;;;;;;;;;;;;15.25;100.00;96655.59;4988499;28;20434;-54
2023/03/14 00:12:07;;;;;;;;;;;;;;;14.89;100.00;96672.59;4986744;28;19949;-51
2023/03/14 00:14:32;;;;;;;;;;;;;;;14.74;100.00;96667.78;4989196;28;21478;-53
2023/03/14 00:16:57;;;;;;;;;;;;;;;14.75;100.00;96678.97;4988623;28;20457;-52
2023/03/14 00:19:22;;;;;;;;;;;;;;;13.90;100.00;96693.00;4989629;28;20650;-53
2023/03/14 00:21:48;;;;;;;;;;;;;;;14.70;100.00;96712.22;4987172;28;20966;-51
2023/03/14 00:24:13;;;;;;;;;;;;;;;14.36;100.00;96709.88;4988521;28;19933;-53
2023/03/14 00:26:38;;;;;;;;;;;;;;;14.69;100.00;96701.06;4988555;28;19952;-52
2023/03/14 00:29:03;;;;;;;;;;;;;;;14.96;100.00;96671.94;4989759;28;19959;-52
2023/03/14 00:31:29;;;;;;;;;;;;;;;15.16;100.00;96640.84;4987328;28;20027;-50
2023/03/14 00:33:54;;;;;;;;;;;;;;;14.79;100.00;96625.94;4987786;28;19921;-50
2023/03/14 00:36:22;;;;;;;;;;;;;;;14.89;100.00;96626.75;4989201;28;20473;-50
2023/03/14 00:38:48;;;;;;;;;;;;;;;14.68;100.00;96619.09;4989621;28;20038;-50
2023/03/14 00:41:15;;;;;;;;;;;;;;;14.56;100.00;96633.13;4987917;28;19960;-53
2023/03/14 00:43:40;;;;;;;;;;;;;;;14.35;100.00;96661.63;4985789;28;19979;-51
2023/03/14 00:46:05;;;;;;;;;;;;;;;14.59;100.00;96672.50;4989234;28;19921;-50
2023/03/14 00:48:30;;;;;;;;;;;;;;;14.70;100.00;96681.16;4988952;28;20025;-52
2023/03/14 00:50:56;;;;;;;;;;;;;;;14.68;100.00;96696.00;4988276;28;20776;-51
2023/03/14 00:53:21;;;;;;;;;;;;;;;14.50;100.00;96688.81;4988244;28;20065;-50
2023/03/14 00:55:46;;;;;;;;;;;;;;;14.53;100.00;96698.91;4988275;28;20011;-51
2023/03/14 00:58:12;;;;;;;;;;;;;;;13.96;100.00;96700.25;4988474;28;20318;-52
2023/03/14 01:00:38;;;;;;;;;;;;;;;14.30;100.00;96716.41;4989006;28;19929;-50
2023/03/14 01:03:03;;;;;;;;;;;;;;;14.73;100.00;96705.00;4989156;28;19949;-51
2023/03/14 01:05:29;;;;;;;;;;;;;;;14.34;100.00;96693.66;4987728;28;19921;-53
2023/03/14 01:07:54;;;;;;;;;;;;;;;13.72;100.00;96706.50;4988449;28;20950;-52
2023/03/14 01:10:19;;;;;;;;;;;;;;;14.04;100.00;96725.50;4988797;28;20049;-52
2023/03/14 01:12:44;;;;;;;;;;;;;;;14.71;100.00;96706.09;4988597;28;20264;-53
2023/03/14 01:15:10;;;;;;;;;;;;;;;14.60;100.00;96687.13;4988304;28;19921;-52
2023/03/14 01:17:37;;;;;;;;;;;;;;;14.49;100.00;96694.13;4988615;28;19929;-51
2023/03/14 01:20:04;;;;;;;;;;;;;;;14.14;100.00;96674.59;4988370;28;19925;-52
2023/03/14 01:22:29;;;;;;;;;;;;;;;14.72;100.00;96679.25;4987923;28;19925;-53
2023/03/14 01:24:55;;;;;;;;;;;;;;;14.30;100.00;96694.84;4986813;28;20453;-53
2023/03/14 01:27:20;;;;;;;;;;;;;;;14.30;100.00;96681.91;4988905;28;19991;-52
2023/03/14 01:29:47;;;;;;;;;;;;;;;14.59;100.00;96690.63;4987297;28;20446;-54
2023/03/14 01:32:12;;;;;;;;;;;;;;;14.62;100.00;96682.63;4987818;28;19974;-53
2023/03/14 01:34:37;;;;;;;;;;;;;;;14.43;100.00;96691.09;4988701;28;19918;-54
2023/03/14 01:37:02;;;;;;;;;;;;;;;14.56;100.00;96659.03;4987989;28;19953;-51
2023/03/14 01:39:28;;;;;;;;;;;;;;;13.83;100.00;96691.88;4987519;28;20075;-52
2023/03/14 01:41:53;;;;;;;;;;;;;;;13.65;100.00;96710.53;4986048;28;19933;-50
2023/03/14 01:44:18;;;;;;;;;;;;;;;14.49;100.00;96705.31;4984109;28;19921;-50
2023/03/14 01:46:45;;;;;;;;;;;;;;;13.85;100.00;96710.69;5000020;28;20466;-52
2023/03/14 01:49:29;;;;;;;;;;;;;;;14.29;100.00;96719.91;5006747;28;19924;-52
2023/03/14 01:52:04;;;;;;;;;;;;;;;14.20;100.00;96712.91;5022635;28;19944;-53
2023/03/14 01:54:52;;;;;;;;;;;;;;;13.97;100.00;96730.34;5009253;28;19921;-52
2023/03/14 01:57:19;;;;;;;;;;;;;;;14.09;100.00;96755.22;5000273;28;19989;-50
2023/03/14 01:59:58;;;;;;;;;;;;;;;14.09;100.00;96775.94;5007317;28;19918;-54
2023/03/14 02:02:24;;;;;;;;;;;;;;;14.44;100.00;96774.81;5005502;28;19929;-52
2023/03/14 02:04:49;;;;;;;;;;;;;;;13.94;100.00;96762.50;5006896;28;20176;-51
2023/03/14 02:07:15;;;;;;;;;;;;;;;13.96;100.00;96796.81;5006656;28;20195;-51
2023/03/14 02:09:41;;;;;;;;;;;;;;;12.32;100.00;96911.00;5010229;28;19968;-49
2023/03/14 02:12:07;;;;;;;;;;;;;;;10.17;100.00;97085.03;5026096;28;20328;-52
2023/03/14 02:14:33;;;;;;;;;;;;;;;9.73;100.00;97280.47;5009637;28;20302;-50
2023/03/14 02:16:58;;;;;;;;;;;;;;;9.96;100.00;97560.31;5008381;28;19989;-51
2023/03/14 02:19:26;;;;;;;;;;;;;;;9.69;100.00;97817.06;5008202;28;19921;-58
2023/03/14 02:22:01;;;;;;;;;;;;;;;11.00;100.00;98117.16;5027229;28;19976;-57
2023/03/14 02:24:35;;;;;;;;;;;;;;;11.78;100.00;98257.72;5020205;28;20479;-51
2023/03/14 02:27:02;;;;;;;;;;;;;;;12.08;100.00;98270.88;5008549;28;19925;-53
2023/03/14 02:29:27;;;;;;;;;;;;;;;13.17;100.00;98272.16;5009978;28;20437;-51
2023/03/14 02:53:50;;;;;;;;;;;;;;;13.15;100.00;97420.94;5009778;28;19944;-50
2023/03/14 02:56:15;;;;;;;;;;;;;;;13.70;100.00;97388.69;5005874;28;19921;-50
2023/03/14 02:58:40;;;;;;;;;;;;;;;13.67;100.00;97329.44;5010395;28;19917;-51
2023/03/14 03:01:06;;;;;;;;;;;;;;;13.18;100.00;97278.56;5011527;28;19936;-50
2023/03/14 03:03:31;;;;;;;;;;;;;;;13.04;100.00;97247.69;5006494;28;19936;-48
2023/03/14 03:05:56;;;;;;;;;;;;;;;13.84;100.00;97239.41;5007269;28;19979;-50
2023/03/14 03:08:23;;;;;;;;;;;;;;;13.04;100.00;97207.16;5007945;28;19975;-51
2023/03/14 03:10:48;;;;;;;;;;;;;;;13.46;100.00;97249.03;5009254;28;19921;-49
2023/03/14 03:13:13;;;;;;;;;;;;;;;13.12;100.00;97219.56;5010013;28;19928;-51
2023/03/14 03:15:39;;;;;;;;;;;;;;;13.72;100.00;97239.38;5007733;28;19993;-51
2023/03/14 03:18:04;;;;;;;;;;;;;;;13.86;100.00;97175.44;5004371;28;20426;-50
2023/03/14 03:20:30;;;;;;;;;;;;;;;13.76;100.00;97147.66;5010055;28;20436;-49
2023/03/14 03:22:55;;;;;;;;;;;;;;;13.80;100.00;97118.03;5011028;28;19921;-52
2023/03/14 03:25:20;;;;;;;;;;;;;;;14.01;100.00;97109.59;5008176;28;19971;-49
2023/03/14 03:27:46;;;;;;;;;;;;;;;12.99;100.00;97059.38;5006503;28;20028;-51
2023/03/14 03:30:11;;;;;;;;;;;;;;;13.13;100.00;97113.47;5008106;28;19995;-49
2023/03/14 03:32:36;;;;;;;;;;;;;;;13.33;100.00;97162.94;5007347;28;19927;-49
2023/03/14 03:35:02;;;;;;;;;;;;;;;13.16;100.00;97169.31;5012113;28;19952;-49
2023/03/14 03:37:29;;;;;;;;;;;;;;;12.49;100.00;97201.50;5011357;28;20322;-50
2023/03/14 03:39:54;;;;;;;;;;;;;;;13.23;100.00;97267.88;5006895;28;19965;-49
2023/03/14 03:42:20;;;;;;;;;;;;;;;13.47;100.00;97317.09;5005610;28;20621;-48
2023/03/14 03:44:45;;;;;;;;;;;;;;;13.17;100.00;97249.31;5002779;28;20016;-51
2023/03/14 03:47:10;;;;;;;;;;;;;;;13.78;100.00;97207.88;5006298;28;19995;-49
2023/03/14 03:49:35;;;;;;;;;;;;;;;13.52;100.00;97144.31;5011145;28;19991;-49
2023/03/14 03:52:01;;;;;;;;;;;;;;;13.21;100.00;97131.03;5005832;28;20184;-48
2023/03/14 03:54:26;;;;;;;;;;;;;;;13.93;100.00;97142.97;5007830;28;20036;-51
2023/03/14 03:56:51;;;;;;;;;;;;;;;13.63;100.00;97073.69;5004639;28;19928;-49
2023/03/14 03:59:16;;;;;;;;;;;;;;;14.05;100.00;97037.69;5005643;28;20544;-50
2023/03/14 04:01:42;;;;;;;;;;;;;;;13.23;100.00;97043.84;5007084;28;20386;-48
2023/03/14 04:04:07;;;;;;;;;;;;;;;13.82;100.00;97073.94;5003471;28;20197;-51
2023/03/14 04:06:32;;;;;;;;;;;;;;;13.84;100.00;97086.75;5004241;28;19965;-49
2023/03/14 04:08:57;;;;;;;;;;;;;;;13.35;100.00;97084.31;5003602;28;19917;-49
2023/03/14 04:11:23;;;;;;;;;;;;;;;13.35;100.00;97107.59;5008085;28;19918;-49
2023/03/14 04:13:48;;;;;;;;;;;;;;;13.13;100.00;97136.72;5009141;28;19917;-48
2023/03/14 04:16:17;;;;;;;;;;;;;;;13.31;100.00;97147.53;5003176;28;20008;-48
2023/03/14 04:18:43;;;;;;;;;;;;;;;13.51;100.00;97147.84;5008347;28;19913;-49
2023/03/14 04:21:08;;;;;;;;;;;;;;;13.21;100.00;97140.53;5007599;28;19939;-49
2023/03/14 04:23:33;;;;;;;;;;;;;;;13.23;100.00;97162.75;5007396;28;19921;-51
2023/03/14 04:25:58;;;;;;;;;;;;;;;13.34;100.00;97177.50;5009176;28;19925;-49
2023/03/14 04:28:24;;;;;;;;;;;;;;;14.10;100.00;97154.66;5008165;28;19924;-51
2023/03/14 04:30:49;;;;;;;;;;;;;;;13.79;100.00;97087.91;5009107;28;20599;-48
2023/03/14 04:33:17;;;;;;;;;;;;;;;14.03;100.00;97071.47;5009389;28;19917;-49
2023/03/14 04:35:42;;;;;;;;;;;;;;;13.92;100.00;97056.78;5006604;28;19921;-49
2023/03/14 04:38:07;;;;;;;;;;;;;;;12.79;100.00;97094.41;5007250;28;19928;-50
2023/03/14 04:40:32;;;;;;;;;;;;;;;11.84;100.00;97214.47;5006188;28;19924;-49
2023/03/14 04:42:57;;;;;;;;;;;;;;;12.17;100.00;97349.97;5005308;28;19918;-50
2023/03/14 04:45:23;;;;;;;;;;;;;;;11.75;100.00;97470.41;5005403;28;19926;-52
2023/03/14 04:47:48;;;;;;;;;;;;;;;11.70;100.00;97589.31;5005920;28;20366;-51
2023/03/14 04:50:13;;;;;;;;;;;;;;;12.32;100.00;97706.03;5005084;28;20887;-52
2023/03/14 04:52:38;;;;;;;;;;;;;;;12.73;100.00;97745.78;5005842;28;20390;-51
2023/03/14 04:55:04;;;;;;;;;;;;;;;13.05;100.00;97714.53;5010408;28;19917;-51
2023/03/14 04:57:29;;;;;;;;;;;;;;;12.02;100.00;97649.34;5005357;28;19982;-50
2023/03/14 04:59:54;;;;;;;;;;;;;;;12.13;100.00;97770.81;5001660;28;20355;-49
2023/03/14 05:02:19;;;;;;;;;;;;;;;12.24;100.00;97831.28;5008601;28;19933;-51
2023/03/14 05:04:45;;;;;;;;;;;;;;;12.60;100.00;97863.66;5002910;28;19924;-50
2023/03/14 05:07:10;;;;;;;;;;;;;;;12.51;100.00;97870.19;5006161;28;20100;-52
2023/03/14 05:09:35;;;;;;;;;;;;;;;11.95;100.00;97903.47;5008057;28;19925;-50
2023/03/14 05:12:00;;;;;;;;;;;;;;;12.60;100.00;97946.31;5008776;28;19990;-49
2023/03/14 05:14:26;;;;;;;;;;;;;;;13.03;100.00;97912.81;5005109;28;19974;-50
2023/03/14 05:16:51;;;;;;;;;;;;;;;13.68;100.00;97895.03;5007800;28;19967;-53
2023/03/14 05:19:16;;;;;;;;;;;;;;;14.88;100.00;97778.47;5006393;28;20374;-50
2023/03/14 05:21:41;;;;;;;;;;;;;;;15.52;100.00;97446.16;5007849;28;20298;-52
2023/03/14 05:24:07;;;;;;;;;;;;;;;15.64;100.00;97164.13;5005455;28;20472;-52
2023/03/14 05:26:32;;;;;;;;;;;;;;;14.98;100.00;97019.94;5009308;28;20342;-52
2023/03/14 05:28:57;;;;;;;;;;;;;;;15.18;100.00;96956.06;5005472;28;20001;-50
2023/03/14 05:31:22;;;;;;;;;;;;;;;15.57;100.00;96875.81;5009714;28;19975;-51
2023/03/14 05:33:48;;;;;;;;;;;;;;;15.58;100.00;96810.03;5011392;28;19952;-49
2023/03/14 05:36:13;;;;;;;;;;;;;;;15.88;100.00;96761.59;5009303;28;19959;-48
2023/03/14 05:38:38;;;;;;;;;;;;;;;15.16;100.00;96718.63;5008889;28;19969;-48
2023/03/14 05:41:03;;;;;;;;;;;;;;;13.89;100.00;96758.63;5010537;28;19928;-51
2023/03/14 05:43:29;;;;;;;;;;;;;;;12.88;100.00;96897.41;5012201;28;19944;-48
2023/03/14 05:45:54;;;;;;;;;;;;;;;13.14;100.00;97093.63;5005463;28;19935;-51
2023/03/14 05:48:21;;;;;;;;;;;;;;;13.10;100.00;97174.91;5028750;28;20076;-48
2023/03/14 05:50:46;;;;;;;;;;;;;;;13.37;100.00;97275.53;5006078;28;19996;-49
2023/03/14 05:53:11;;;;;;;;;;;;;;;12.83;100.00;97305.09;5008418;28;20008;-49
2023/03/14 05:55:37;;;;;;;;;;;;;;;13.21;100.00;97374.00;5009589;28;20012;-50
2023/03/14 05:58:02;;;;;;;;;;;;;;;12.98;100.00;97368.63;5009774;28;19917;-48
2023/03/14 06:00:27;;;;;;;;;;;;;;;12.58;100.00;97441.97;5004687;28;19920;-48
2023/03/14 06:02:52;;;;;;;;;;;;;;;12.76;100.00;97534.56;5011085;28;20053;-48
2023/03/14 06:05:18;;;;;;;;;;;;;;;12.76;100.00;97523.41;5008039;28;20578;-47
2023/03/14 06:07:43;;;;;;;;;;;;;;;12.75;100.00;97543.25;5012217;28;20016;-47
2023/03/14 06:10:08;;;;;;;;;;;;;;;13.17;100.00;97556.91;5006404;28;19921;-47
2023/03/14 06:12:34;;;;;;;;;;;;;;;13.16;100.00;97547.50;5007655;28;19999;-49
2023/03/14 06:14:59;;;;;;;;;;;;;;;13.23;100.00;97547.94;5005944;28;20031;-48
2023/03/14 06:17:24;;;;;;;;;;;;;;;13.23;100.00;97526.38;5007605;28;19918;-48
2023/03/14 06:19:49;;;;;;;;;;;;;;;12.88;100.00;97501.94;5011047;28;19920;-49
2023/03/14 06:22:14;;;;;;;;;;;;;;;12.60;100.00;97515.81;5009437;28;19922;-48
2023/03/14 06:24:40;;;;;;;;;;;;;;;12.55;100.00;97547.09;5011464;28;19922;-48
2023/03/14 06:27:05;;;;;;;;;;;;;;;13.26;100.00;97609.75;5006623;28;20408;-49
2023/03/14 06:29:30;;;;;;;;;;;;;;;12.11;100.00;97573.94;5004858;28;20791;-48
2023/03/14 06:31:55;;;;;;;;;;;;;;;12.93;100.00;97648.91;5013202;28;20383;-48
2023/03/14 06:34:21;;;;;;;;;;;;;;;12.55;100.00;97614.25;5004865;28;20382;-47
2023/03/14 06:36:46;;;;;;;;;;;;;;;12.23;100.00;97651.56;5008228;28;20412;-50
2023/03/14 06:39:11;;;;;;;;;;;;;;;11.63;100.00;97689.41;5004732;28;19921;-48
2023/03/14 06:41:37;;;;;;;;;;;;;;;12.02;100.00;97790.38;5009796;28;20350;-47
2023/03/14 06:44:02;;;;;;;;;;;;;;;12.23;100.00;97855.47;4999327;28;19921;-49
2023/03/14 06:46:27;;;;;;;;;;;;;;;12.97;100.00;97901.88;5004650;28;19920;-47
2023/03/14 06:48:53;;;;;;;;;;;;;;;13.44;100.00;97871.53;5006171;28;19921;-48
2023/03/14 06:51:18;;;;;;;;;;;;;;;13.98;100.00;97697.31;5003415;28;19975;-49
2023/03/14 06:53:43;;;;;;;;;;;;;;;13.98;100.00;97589.47;5003263;28;20291;-48
2023/03/14 06:56:09;;;;;;;;;;;;;;;13.26;100.00;97405.53;5003420;28;20345;-48
2023/03/14 06:58:34;;;;;;;;;;;;;;;13.26;100.00;97415.88;5006754;28;19982;-47
2023/03/14 07:00:59;;;;;;;;;;;;;;;12.96;100.00;97448.00;5007170;28;20774;-49
2023/03/14 07:03:24;;;;;;;;;;;;;;;12.86;100.00;97562.41;5009983;28;20353;-48
2023/03/14 07:05:49;;;;;;;;;;;;;;;12.72;100.00;97566.69;5009199;28;19972;-47
2023/03/14 07:08:15;;;;;;;;;;;;;;;12.68;100.00;97579.91;5008949;28;19960;-47
2023/03/14 07:10:40;;;;;;;;;;;;;;;12.46;100.00;97692.28;5008265;28;20378;-47
2023/03/14 07:13:05;;;;;;;;;;;;;;;12.40;100.00;97715.88;5003873;28;20012;-50
2023/03/14 07:15:30;;;;;;;;;;;;;;;12.47;100.00;97750.72;5010901;28;19956;-47
2023/03/14 07:17:56;;;;;;;;;;;;;;;12.75;100.00;97848.09;5004407;28;19921;-48
2023/03/14 07:20:21;;;;;;;;;;;;;;;11.96;100.00;97780.44;5004917;28;19928;-48
2023/03/14 07:22:47;;;;;;;;;;;;;;;12.94;100.00;97873.66;5006874;28;20525;-48
2023/03/14 07:25:13;;;;;;;;;;;;;;;12.97;100.00;97894.13;5007190;28;19928;-48
2023/03/14 07:27:38;;;;;;;;;;;;;;;12.73;100.00;97843.94;5007387;28;19921;-49
2023/03/14 07:30:03;;;;;;;;;;;;;;;12.83;100.00;97826.13;5005714;28;19917;-48
2023/03/14 07:32:29;;;;;;;;;;;;;;;12.11;100.00;97824.28;5003943;28;19921;-48
2023/03/14 07:34:54;;;;;;;;;;;;;;;13.14;100.00;97889.72;5007206;28;20590;-47
2023/03/14 07:37:19;;;;;;;;;;;;;;;12.96;100.00;97830.47;5007397;28;20292;-49
2023/03/14 07:39:44;;;;;;;;;;;;;;;13.58;100.00;97795.66;5029488;28;20340;-50
2023/03/14 07:42:10;;;;;;;;;;;;;;;13.42;100.00;97743.25;5005939;28;19921;-49
2023/03/14 07:44:36;;;;;;;;;;;;;;;13.78;100.00;97683.13;5005937;28;19931;-48
2023/03/14 07:47:01;;;;;;;;;;;;;;;14.03;100.00;97671.97;5006777;28;20548;-48
2023/03/14 07:49:27;;;;;;;;;;;;;;;13.06;100.00;97592.13;5011578;28;20358;-52
2023/03/14 07:51:52;;;;;;;;;;;;;;;12.78;100.00;97681.72;5007278;28;20493;-48
2023/03/14 07:54:17;;;;;;;;;;;;;;;12.42;100.00;97747.59;5006745;28;19920;-48
2023/03/14 07:56:42;;;;;;;;;;;;;;;12.82;100.00;97845.97;5008592;28;20522;-51
2023/03/14 07:59:08;;;;;;;;;;;;;;;13.56;100.00;97834.56;5009804;28;19913;-50
2023/03/14 08:01:33;;;;;;;;;;;;;;;12.89;100.00;97756.81;5007058;28;19932;-48
2023/03/14 08:03:58;;;;;;;;;;;;;;;12.65;100.00;97784.13;5006837;28;19921;-47
2023/03/14 08:06:24;;;;;;;;;;;;;;;13.05;100.00;97848.94;5011663;28;20267;-49
2023/03/14 08:08:49;;;;;;;;;;;;;;;12.99;100.00;97870.78;5007800;28;19992;-47
2023/03/14 08:11:14;;;;;;;;;;;;;;;13.38;100.00;97851.22;5006541;28;19921;-47
2023/03/14 08:13:39;;;;;;;;;;;;;;;13.13;100.00;97867.38;5006095;28;19924;-47
2023/03/14 08:16:05;;;;;;;;;;;;;;;12.86;100.00;97881.03;5009462;28;20883;-48
2023/03/14 08:18:30;;;;;;;;;;;;;;;13.18;100.00;97906.69;4999379;28;19918;-48
2023/03/14 08:20:55;;;;;;;;;;;;;;;13.79;100.00;97899.56;5010267;28;19975;-48
2023/03/14 08:23:21;;;;;;;;;;;;;;;14.29;100.00;97858.41;5005252;28;20012;-47
2023/03/14 08:25:48;;;;;;;;;;;;;;;13.17;100.00;97824.91;5007700;28;20343;-48
2023/03/14 08:28:13;;;;;;;;;;;;;;;13.87;100.00;97909.44;5001731;28;19944;-48
2023/03/14 08:30:38;;;;;;;;;;;;;;;13.46;100.00;97923.19;5004816;28;20319;-50
2023/03/14 08:33:03;;;;;;;;;;;;;;;13.11;100.00;97901.09;5008782;28;19924;-50
2023/03/14 08:35:28;;;;;;;;;;;;;;;13.67;100.00;97960.66;5006483;28;20000;-48
2023/03/14 08:37:54;;;;;;;;;;;;;;;13.15;100.00;97971.53;5013227;28;20004;-50
2023/03/14 08:40:19;;;;;;;;;;;;;;;12.72;100.00;97972.25;5008499;28;19999;-48
2023/03/14 08:42:44;;;;;;;;;;;;;;;13.75;100.00;98041.25;5018291;28;20007;-50
2023/03/14 08:45:11;;;;;;;;;;;;;;;12.93;100.00;97977.97;5009499;28;19917;-49
2023/03/14 08:47:36;;;;;;;;;;;;;;;13.25;100.00;98057.13;5009298;28;19951;-48
2023/03/14 08:50:03;;;;;;;;;;;;;;;13.65;100.00;98049.66;5005267;28;20461;-50
2023/03/14 08:52:30;;;;;;;;;;;;;;;13.72;100.00;98028.47;5002586;28;19937;-49
2023/03/14 08:54:55;;;;;;;;;;;;;;;13.38;100.00;97960.66;5006391;28;19917;-48
2023/03/14 08:57:21;;;;;;;;;;;;;;;13.33;100.00;97988.56;5006010;28;20535;-48
2023/03/14 08:59:47;;;;;;;;;;;;;;;13.94;100.00;98060.84;5006576;28;19921;-50
2023/03/14 09:02:12;;;;;;;;;;;;;;;13.74;100.00;98013.69;5010614;28;19921;-48
2023/03/14 09:04:37;;;;;;;;;;;;;;;14.04;100.00;98019.69;5012890;28;19917;-47
2023/03/14 09:07:03;;;;;;;;;;;;;;;13.93;100.00;97951.28;5010378;28;19921;-48
2023/03/14 09:09:28;;;;;;;;;;;;;;;13.00;100.00;97931.06;5010649;28;19920;-49
2023/03/14 09:11:53;;;;;;;;;;;;;;;13.87;100.00;98028.50;5008758;28;20786;-50
2023/03/14 09:14:18;;;;;;;;;;;;;;;14.29;100.00;97956.81;5010928;28;19943;-47
2023/03/14 09:16:44;;;;;;;;;;;;;;;13.98;100.00;97933.72;5014418;28;20011;-49
2023/03/14 09:19:09;;;;;;;;;;;;;;;14.28;100.00;97918.88;5009266;28;20054;-49
2023/03/14 09:21:34;;;;;;;;;;;;;;;13.44;100.00;97839.69;5012295;28;20326;-48
2023/03/14 09:23:59;;;;;;;;;;;;;;;13.79;100.00;97882.25;5013566;28;19917;-50
2023/03/14 09:26:24;;;;;;;;;;;;;;;14.91;100.00;97874.16;5012558;28;19956;-47
2023/03/14 09:28:50;;;;;;;;;;;;;;;14.33;100.00;97826.22;5012970;28;19921;-49
2023/03/14 09:31:15;;;;;;;;;;;;;;;15.24;100.00;97815.75;5011211;28;19924;-48
2023/03/14 09:33:40;;;;;;;;;;;;;;;14.52;100.00;97733.38;5013613;28;19921;-48
2023/03/14 09:36:07;;;;;;;;;;;;;;;14.16;100.00;97728.91;5006317;28;19925;-49
2023/03/14 09:38:32;;;;;;;;;;;;;;;14.48;100.00;97744.88;5010522;28;20000;-50
2023/03/14 09:40:59;;;;;;;;;;;;;;;13.77;100.00;97749.56;5006754;28;19943;-51
2023/03/14 09:43:24;;;;;;;;;;;;;;;13.72;100.00;97777.50;5005863;28;19925;-50
2023/03/14 09:45:49;;;;;;;;;;;;;;;14.28;100.00;97846.38;5012007;28;20282;-48
2023/03/14 09:48:16;;;;;;;;;;;;;;;14.54;100.00;97806.66;5028118;28;20402;-50
2023/03/14 09:50:43;;;;;;;;;;;;;;;14.15;100.00;97807.53;5013467;28;20113;-49
2023/03/14 09:53:13;;;;;;;;;;;;;;;14.26;100.00;97832.72;5022314;28;20853;-49
2023/03/14 09:55:38;;;;;;;;;;;;;;;15.62;100.00;97862.34;5013516;28;19917;-48
2023/03/14 09:58:04;;;;;;;;;;;;;;;15.47;100.00;97827.91;5025936;28;19940;-50
2023/03/14 10:00:30;;;;;;;;;;;;;;;15.33;100.00;97715.69;5007086;28;20883;-51
2023/03/14 10:03:14;;;;;;;;;;;;;;;14.92;100.00;97712.50;5026284;28;19924;-49
2023/03/14 10:05:40;;;;;;;;;;;;;;;15.36;100.00;97721.47;5011195;28;20654;-49
2023/03/14 10:08:05;;;;;;;;;;;;;;;14.70;100.00;97718.34;5009585;28;19914;-48
2023/03/14 10:10:31;;;;;;;;;;;;;;;14.64;100.00;97740.34;5007070;28;19925;-50
2023/03/14 10:12:57;;;;;;;;;;;;;;;15.61;100.00;97762.03;5013985;28;19917;-49
2023/03/14 10:15:24;;;;;;;;;;;;;;;14.15;100.00;97717.75;5009592;28;19948;-49
2023/03/14 10:17:50;;;;;;;;;;;;;;;14.61;100.00;97792.38;5007691;28;20318;-51
2023/03/14 10:20:32;;;;;;;;;;;;;;;13.65;100.00;97856.44;5009468;28;19924;-48
2023/03/14 10:22:57;;;;;;;;;;;;;;;13.19;100.00;97965.25;5011528;28;19921;-50
2023/03/14 10:25:32;;;;;;;;;;;;;;;13.21;100.00;98118.53;5008335;28;20602;-48
2023/03/14 10:27:57;;;;;;;;;;;;;;;11.47;100.00;98279.00;5012300;28;19917;-49
2023/03/14 10:30:35;;;;;;;;;;;;;;;11.17;100.00;98457.34;5011605;28;19929;-50
2023/03/14 10:33:19;;;;;;;;;;;;;;;10.63;100.00;98582.38;5004786;28;20385;-51
2023/03/14 10:35:44;;;;;;;;;;;;;;;9.37;92.29;98707.69;5012185;28;19924;-55
2023/03/14 10:38:13;;;;;;;;;;;;;;;9.45;76.01;98834.22;5024861;28;20371;-54
2023/03/14 10:40:40;;;;;;;;;;;;;;;9.49;70.94;98933.50;5009202;28;19948;-54
2023/03/14 10:43:06;;;;;;;;;;;;;;;9.75;66.30;99027.88;5007265;28;19920;-53
2023/03/14 10:45:44;;;;;;;;;;;;;;;9.72;65.79;99083.72;5006354;28;19960;-53
2023/03/14 10:48:20;;;;;;;;;;;;;;;9.77;61.29;99151.31;4988052;28;21153;-55
2023/03/14 10:50:50;;;;;;;;;;;;;;;10.04;55.27;99212.31;5007823;28;19917;-54
2023/03/14 10:53:16;;;;;;;;;;;;;;;9.67;52.73;99239.84;5005470;28;19963;-54
2023/03/14 10:55:42;;;;;;;;;;;;;;;9.61;49.73;99298.25;5009875;28;19921;-53
2023/03/14 10:58:20;;;;;;;;;;;;;;;9.92;48.96;99359.28;5010837;28;19971;-55
2023/03/14 11:00:47;;;;;;;;;;;;;;;9.34;51.56;99406.84;5009812;28;19913;-57
2023/03/14 11:03:12;;;;;;;;;;;;;;;8.78;52.00;99448.13;5005571;28;20295;-59
2023/03/14 11:05:43;;;;;;;;;;;;;;;8.29;52.08;99485.69;5025602;28;19980;-58
2023/03/14 11:08:15;;;;;;;;;;;;;;;7.97;54.46;99524.63;5024759;28;19913;-59
2023/03/14 11:10:42;;;;;;;;;;;;;;;8.22;54.69;99606.41;5005399;28;19951;-57
2023/03/14 11:13:17;;;;;;;;;;;;;;;8.13;58.67;99640.72;5007724;28;19928;-57
2023/03/14 11:15:57;;;;;;;;;;;;;;;8.22;61.01;99702.19;5008104;28;20024;-57
2023/03/14 11:18:45;;;;;;;;;;;;;;;8.23;66.30;99772.28;5010954;28;20043;-58
2023/03/14 11:21:20;;;;;;;;;;;;;;;8.23;73.56;99837.28;5009134;28;20328;-57
2023/03/14 11:23:54;;;;;;;;;;;;;;;8.15;79.03;99868.16;5007147;28;19943;-57
2023/03/14 11:26:31;;;;;;;;;;;;;;;8.36;83.95;99905.63;5010210;28;19913;-57
2023/03/14 11:29:14;;;;;;;;;;;;;;;8.18;87.78;99944.25;5005062;28;20310;-56
2023/03/14 11:31:40;;;;;;;;;;;;;;;8.09;91.58;99987.94;5004151;28;20000;-54
2023/03/14 11:34:17;;;;;;;;;;;;;;;8.09;95.70;100026.41;5005713;28;20020;-58
2023/03/14 11:36:53;;;;;;;;;;;;;;;7.36;100.00;100036.09;5006747;28;19955;-58
2023/03/14 11:39:18;;;;;;;;;;;;;;;7.48;100.00;100101.84;5006752;28;19924;-59
2023/03/14 11:41:45;;;;;;;;;;;;;;;6.36;100.00;100101.78;5006442;28;19925;-58
2023/03/14 11:44:19;;;;;;;;;;;;;;;6.37;100.00;100140.16;5003978;28;19917;-59
2023/03/14 11:46:48;;;;;;;;;;;;;;;6.28;100.00;100187.03;5009837;28;20009;-58
2023/03/14 11:49:16;;;;;;;;;;;;;;;6.27;100.00;100228.84;5008604;28;20401;-57
2023/03/14 11:51:41;;;;;;;;;;;;;;;6.15;100.00;100264.56;5005873;28;19921;-58
2023/03/14 11:54:18;;;;;;;;;;;;;;;6.22;100.00;100312.34;5005532;28;20289;-56
2023/03/14 11:57:13;;;;;;;;;;;;;;;6.55;100.00;100403.00;5002040;28;20011;-54
2023/03/14 11:59:38;;;;;;;;;;;;;;;6.26;100.00;100424.09;4998186;28;20008;-53
2023/03/14 12:02:04;;;;;;;;;;;;;;;6.10;100.00;100441.84;5006505;28;20258;-54
2023/03/14 12:04:32;;;;;;;;;;;;;;;6.34;100.00;100523.06;5001001;28;19917;-55
2023/03/14 12:06:57;;;;;;;;;;;;;;;6.60;100.00;100572.81;5004214;28;19928;-54
2023/03/14 12:09:23;;;;;;;;;;;;;;;5.96;100.00;100559.34;5008425;28;20068;-54
2023/03/14 12:11:56;;;;;;;;;;;;;;;5.75;100.00;100583.78;5006380;28;19921;-52
2023/03/14 12:14:23;;;;;;;;;;;;;;;5.99;100.00;100628.41;5020570;28;19923;-54
2023/03/14 12:16:48;;;;;;;;;;;;;;;5.89;100.00;100632.53;5002832;28;19924;-54
2023/03/14 12:19:22;;;;;;;;;;;;;;;6.13;100.00;100672.91;5004189;28;19918;-51
2023/03/14 12:21:49;;;;;;;;;;;;;;;5.90;100.00;100612.91;5007465;28;19918;-52
2023/03/14 12:24:19;;;;;;;;;;;;;;;6.06;100.00;100599.50;5004323;28;19945;-51
2023/03/14 12:26:48;;;;;;;;;;;;;;;6.42;100.00;100575.19;5002743;28;19925;-51
2023/03/14 12:29:16;;;;;;;;;;;;;;;6.42;100.00;100516.34;5000789;28;19921;-51
2023/03/14 12:31:43;;;;;;;;;;;;;;;6.53;100.00;100488.28;5006328;28;20508;-53
2023/03/14 12:34:11;;;;;;;;;;;;;;;7.13;100.00;100498.09;5005019;28;19973;-53
2023/03/14 12:36:49;;;;;;;;;;;;;;;6.27;100.00;100415.59;5007268;28;19921;-50
2023/03/14 12:39:33;;;;;;;;;;;;;;;6.61;100.00;100392.78;5005066;28;19924;-52
2023/03/14 12:42:05;;;;;;;;;;;;;;;6.14;100.00;100342.13;5003381;28;19921;-50
2023/03/14 12:44:30;;;;;;;;;;;;;;;6.47;100.00;100340.66;5003675;28;20016;-51
2023/03/14 12:47:14;;;;;;;;;;;;;;;6.38;100.00;100310.72;5007903;28;21400;-49
2023/03/14 12:49:39;;;;;;;;;;;;;;;5.99;100.00;100260.19;5005516;28;19917;-49
2023/03/14 12:52:11;;;;;;;;;;;;;;;6.17;100.00;100255.19;5007433;28;19940;-50
2023/03/14 12:54:54;;;;;;;;;;;;;;;6.23;100.00;100237.31;5004467;28;19918;-51
2023/03/14 12:57:22;;;;;;;;;;;;;;;6.23;100.00;100209.19;5007442;28;19913;-50
2023/03/14 12:59:51;;;;;;;;;;;;;;;6.77;100.00;100216.22;5004532;28;20132;-48